This is the latest recevied weather packets stored in our database for station/object JE3XST-13. If no packets are shown the sender has not sent any weather packets the latest 10 day(s).
| Time | Temp. | Humidity | Pressure | Rain* | Wind** | Luminosity | Snow |
|---|---|---|---|---|---|---|---|
| 1787833016 | 27.78° C | 78% | 1009.3 hPa | 0 mm | - | - | - |
| 1787831214 | 27.22° C | 79% | 1009.5 hPa | 0 mm | - | - | - |
| 1787829414 | 27.22° C | 78% | 1008.7 hPa | 0 mm | - | - | - |
| 1787827613 | 27.22° C | 75% | 1008.5 hPa | 0 mm | - | - | - |
| 1787825810 | 29.44° C | 75% | 1008.3 hPa | 0 mm | - | - | - |
| 1787824009 | 30.56° C | 71% | 1008.1 hPa | 0 mm | - | - | - |
| 1787822441 | 31.11° C | 70% | 1007.8 hPa | 0 mm | - | - | - |
| 1787820639 | 31.67° C | 69% | 1007.3 hPa | 0 mm | - | - | - |
| 1787820474 | 31.67° C | 69% | 1007.4 hPa | 0 mm | - | - | - |
| 1787818673 | 32.22° C | 67% | 1007.2 hPa | 0 mm | - | - | - |
| 1787816872 | 32.78° C | 64% | 1006.6 hPa | 0 mm | - | - | - |
| 1787815073 | 33.33° C | 62% | 1006.7 hPa | 0 mm | - | - | - |
| 1787813271 | 33.33° C | 60% | 1006.6 hPa | 0 mm | - | - | - |
| 1787811473 | 33.33° C | 61% | 1006.6 hPa | 0 mm | - | - | - |
| 1787809672 | 33.33° C | 61% | 1006.7 hPa | 0 mm | - | - | - |
| 1787807872 | 32.78° C | 61% | 1006.8 hPa | 0 mm | - | - | - |
| 1787806071 | 32.78° C | 63% | 1007.2 hPa | 0 mm | - | - | - |
| 1787804272 | 32.78° C | 64% | 1007.4 hPa | 0 mm | - | - | - |
| 1787802471 | 32.22° C | 66% | 1007.6 hPa | 0 mm | - | - | - |
| 1787800824 | 32.78° C | 65% | 1008 hPa | 0 mm | - | - | - |
| 1787799023 | 32.22° C | 66% | 1008.4 hPa | 0 mm | - | - | - |
| 1787797343 | 32.22° C | 65% | 1008.6 hPa | 0 mm | - | - | - |
| 1787795545 | 32.22° C | 66% | 1008.6 hPa | 0 mm | - | - | - |
| 1787793743 | 32.22° C | 65% | 1008.7 hPa | 0 mm | - | - | - |
| 1787791774 | 31.67° C | 65% | 1008.3 hPa | 0 mm | - | - | - |
* Rain latest hour (hover to see other rain measurements)
** Current wind speed in m/s (hover to see current wind gust speed)